createdAt,value
2018-11-03T00:01:59.440Z,9.93
2018-11-03T00:04:27.812Z,12.98
2018-11-03T00:06:56.166Z,13.78
2018-11-03T00:09:24.544Z,13.38
2018-11-03T00:11:53.102Z,18.05
2018-11-03T00:14:21.462Z,16.85
2018-11-03T00:16:49.818Z,18.23
2018-11-03T00:19:18.142Z,16.95
2018-11-03T00:21:46.494Z,13.90
2018-11-03T00:24:14.826Z,13.78
2018-11-03T00:26:43.267Z,14.53
2018-11-03T00:29:11.657Z,15.13
2018-11-03T00:31:40.060Z,20.48
2018-11-03T00:34:08.393Z,19.37
2018-11-03T00:36:41.672Z,19.62
2018-11-03T00:39:11.446Z,15.28
2018-11-03T00:41:39.838Z,14.03
2018-11-03T00:44:08.784Z,12.33
2018-11-03T00:46:41.832Z,14.58
2018-11-03T00:49:10.255Z,10.15
2018-11-03T00:51:38.622Z,11.75
2018-11-03T00:54:06.943Z,10.90
2018-11-03T00:56:35.346Z,17.32
2018-11-03T00:59:04.434Z,13.38
2018-11-03T01:01:32.740Z,14.70
2018-11-03T01:04:02.118Z,15.93
2018-11-03T01:06:30.506Z,17.20
2018-11-03T01:08:58.826Z,13.22
2018-11-03T01:11:27.184Z,14.95
2018-11-03T01:13:55.538Z,14.78
2018-11-03T01:16:23.881Z,12.60
2018-11-03T01:18:52.259Z,11.20
2018-11-03T01:21:20.679Z,12.53
2018-11-03T01:23:49.054Z,16.30
2018-11-03T01:26:17.386Z,16.12
2018-11-03T01:28:45.686Z,15.25
2018-11-03T01:31:14.671Z,13.18
2018-11-03T01:33:43.199Z,13.48
2018-11-03T01:36:11.570Z,15.75
2018-11-03T01:38:39.931Z,15.13
2018-11-03T01:41:08.354Z,12.00
2018-11-03T01:43:36.695Z,13.65
2018-11-03T01:46:05.364Z,22.10
2018-11-03T01:48:33.726Z,14.53
2018-11-03T01:51:02.091Z,12.18
2018-11-03T01:53:30.411Z,15.00
2018-11-03T01:55:58.805Z,13.83
2018-11-03T01:58:27.125Z,18.37
2018-11-03T02:00:55.458Z,17.67
2018-11-03T02:03:23.801Z,18.80
2018-11-03T02:05:52.107Z,19.32
2018-11-03T02:08:20.451Z,18.23
2018-11-03T02:10:48.779Z,15.15
2018-11-03T02:13:17.181Z,15.65
2018-11-03T02:15:45.533Z,15.70
2018-11-03T02:18:13.891Z,18.40
2018-11-03T02:20:42.231Z,15.03
2018-11-03T02:23:10.603Z,13.48
2018-11-03T02:25:38.907Z,18.37
2018-11-03T02:28:07.399Z,18.77
2018-11-03T02:30:35.743Z,15.95
2018-11-03T02:33:04.057Z,16.93
2018-11-03T02:35:32.443Z,15.05
2018-11-03T02:38:00.751Z,13.90
2018-11-03T02:40:29.083Z,19.50
2018-11-03T02:42:57.404Z,17.95
2018-11-03T02:45:25.735Z,19.42
2018-11-03T02:47:54.055Z,17.17
2018-11-03T02:50:22.389Z,16.90
2018-11-03T02:52:50.641Z,19.80
2018-11-03T02:55:18.997Z,20.32
2018-11-03T02:57:47.369Z,20.00
2018-11-03T03:00:15.687Z,19.65
2018-11-03T03:02:44.058Z,19.37
2018-11-03T03:05:12.427Z,17.45
2018-11-03T03:07:40.945Z,17.70
2018-11-03T03:10:10.875Z,14.83
2018-11-03T03:12:39.273Z,16.20
2018-11-03T03:15:09.115Z,15.60
2018-11-03T03:17:37.443Z,12.93
2018-11-03T03:20:07.168Z,18.10
2018-11-03T03:22:35.603Z,18.70
2018-11-03T03:25:03.998Z,15.40
2018-11-03T03:27:32.566Z,10.90
2018-11-03T03:30:00.899Z,12.03
2018-11-03T03:32:29.238Z,13.68
2018-11-03T03:34:57.719Z,10.35
2018-11-03T03:37:26.125Z,15.88
2018-11-03T03:39:54.478Z,15.20
2018-11-03T03:42:22.900Z,11.18
2018-11-03T03:44:51.222Z,11.18
2018-11-03T03:47:19.684Z,12.60
2018-11-03T03:49:48.018Z,13.38
2018-11-03T03:52:16.346Z,14.38
2018-11-03T03:54:44.668Z,16.80
2018-11-03T03:57:12.994Z,22.00
2018-11-03T03:59:41.322Z,12.68
2018-11-03T04:02:09.650Z,13.05
2018-11-03T04:04:38.006Z,13.83
2018-11-03T04:07:06.542Z,13.78
2018-11-03T04:09:34.895Z,13.65
2018-11-03T04:12:03.291Z,16.45
2018-11-03T04:14:31.663Z,12.98
2018-11-03T04:17:00.058Z,15.88
2018-11-03T04:19:28.925Z,14.58
2018-11-03T04:21:57.293Z,15.18
2018-11-03T04:24:25.686Z,13.05
2018-11-03T04:26:54.021Z,19.10
2018-11-03T04:29:22.357Z,13.15
2018-11-03T04:31:50.825Z,19.27
2018-11-03T04:34:19.160Z,17.70
2018-11-03T04:36:47.523Z,15.83
2018-11-03T04:39:15.867Z,14.58
2018-11-03T04:41:44.285Z,15.68
2018-11-03T04:44:12.616Z,15.13
2018-11-03T04:46:40.999Z,15.23
2018-11-03T04:49:09.380Z,13.38
2018-11-03T04:51:37.747Z,13.75
2018-11-03T04:54:06.099Z,13.85
2018-11-03T04:56:34.473Z,16.60
2018-11-03T04:59:02.829Z,17.67
2018-11-03T05:01:31.154Z,15.48
2018-11-03T05:03:59.493Z,20.05
2018-11-03T05:06:27.865Z,16.93
2018-11-03T05:08:56.167Z,16.70
2018-11-03T05:11:24.528Z,18.05
2018-11-03T05:13:52.834Z,17.10
2018-11-03T05:16:21.214Z,20.92
2018-11-03T05:18:49.575Z,18.12
2018-11-03T05:21:17.932Z,15.85
2018-11-03T05:23:46.211Z,17.17
2018-11-03T05:26:14.542Z,17.12
2018-11-03T05:28:42.902Z,17.60
2018-11-03T05:31:11.275Z,17.52
2018-11-03T05:33:39.588Z,20.00
2018-11-03T05:36:07.944Z,21.37
2018-11-03T05:38:36.282Z,17.27
2018-11-03T05:41:05.046Z,19.75
2018-11-03T05:43:33.382Z,20.00
2018-11-03T05:46:01.715Z,21.37
2018-11-03T05:48:30.086Z,21.97
2018-11-03T05:50:58.436Z,17.70
2018-11-03T05:53:26.771Z,17.57
2018-11-03T05:55:55.108Z,18.82
2018-11-03T05:58:24.333Z,16.82
2018-11-03T06:00:52.761Z,15.23
2018-11-03T06:03:21.170Z,17.62
2018-11-03T06:05:49.498Z,13.88
2018-11-03T06:08:18.487Z,16.42
2018-11-03T06:10:46.919Z,16.50
2018-11-03T06:13:15.250Z,13.88
2018-11-03T06:15:43.723Z,12.25
2018-11-03T06:18:12.067Z,18.40
2018-11-03T06:20:44.196Z,17.87
2018-11-03T06:23:12.702Z,16.73
2018-11-03T06:25:41.669Z,14.43
2018-11-03T06:28:10.104Z,14.33
2018-11-03T06:30:38.529Z,13.62
2018-11-03T06:33:06.849Z,15.40
2018-11-03T06:35:35.323Z,13.15
2018-11-03T06:38:03.751Z,14.47
2018-11-03T06:40:34.136Z,12.65
2018-11-03T06:43:02.550Z,11.60
2018-11-03T06:45:30.972Z,11.10
2018-11-03T06:47:59.483Z,11.63
2018-11-03T06:50:27.966Z,17.23
2018-11-03T06:52:56.385Z,16.32
2018-11-03T06:55:24.829Z,13.03
2018-11-03T06:57:53.228Z,10.00
2018-11-03T07:00:21.703Z,9.80
2018-11-03T07:02:50.064Z,11.50
2018-11-03T07:05:18.594Z,9.98
2018-11-03T07:07:46.993Z,11.75
2018-11-03T07:10:15.514Z,28.17
2018-11-03T07:12:45.168Z,11.60
2018-11-03T07:15:13.807Z,16.60
2018-11-03T07:17:42.186Z,12.70
2018-11-03T07:20:11.987Z,11.57
2018-11-03T07:22:40.475Z,11.38
2018-11-03T07:25:09.231Z,11.20
2018-11-03T07:27:37.633Z,10.40
2018-11-03T07:30:08.927Z,11.00
2018-11-03T07:32:37.443Z,23.35
2018-11-03T07:35:06.059Z,23.32
2018-11-03T07:37:36.458Z,15.30
2018-11-03T07:40:06.003Z,10.60
2018-11-03T07:42:34.423Z,11.18
2018-11-03T07:45:02.832Z,10.47
2018-11-03T07:47:31.295Z,10.25
2018-11-03T07:49:59.619Z,11.77
2018-11-03T07:52:28.057Z,13.00
2018-11-03T07:54:56.623Z,11.20
2018-11-03T07:57:24.775Z,11.97
2018-11-03T07:59:53.314Z,12.20
2018-11-03T08:02:21.707Z,11.33
2018-11-03T08:04:51.138Z,11.47
2018-11-03T08:07:19.751Z,11.90
2018-11-03T08:09:48.103Z,11.70
2018-11-03T08:12:16.474Z,11.70
2018-11-03T08:14:45.128Z,12.37
2018-11-03T08:17:13.557Z,14.00
2018-11-03T08:19:41.934Z,13.57
2018-11-03T08:22:10.357Z,14.80
2018-11-03T08:24:38.755Z,11.90
2018-11-03T08:27:07.118Z,12.40
2018-11-03T08:29:36.217Z,11.70
2018-11-03T08:32:04.686Z,12.97
2018-11-03T08:34:33.115Z,15.60
2018-11-03T08:37:01.544Z,14.30
2018-11-03T08:39:30.248Z,15.67
2018-11-03T08:41:58.629Z,14.53
2018-11-03T08:44:27.058Z,14.13
2018-11-03T08:46:55.431Z,16.83
2018-11-03T08:49:23.913Z,15.27
2018-11-03T08:51:52.302Z,17.10
2018-11-03T08:54:20.657Z,15.83
2018-11-03T08:56:49.112Z,17.40
2018-11-03T08:59:17.519Z,16.67
2018-11-03T09:01:45.897Z,17.60
2018-11-03T09:04:14.276Z,19.00
2018-11-03T09:06:42.669Z,20.83
2018-11-03T09:09:11.619Z,19.83
2018-11-03T09:11:39.988Z,18.40
2018-11-03T09:14:08.414Z,19.35
2018-11-03T09:16:36.812Z,18.55
2018-11-03T09:19:05.336Z,18.73
2018-11-03T09:21:33.790Z,18.80
2018-11-03T09:24:02.405Z,19.73
2018-11-03T09:26:30.881Z,19.27
2018-11-03T09:28:59.826Z,21.07
2018-11-03T09:31:28.459Z,21.30
2018-11-03T09:33:56.891Z,25.33
2018-11-03T09:36:25.927Z,20.27
2018-11-03T09:38:54.284Z,21.90
2018-11-03T09:41:22.689Z,22.45
2018-11-03T09:43:51.361Z,22.73
2018-11-03T09:46:21.638Z,23.42
2018-11-03T09:48:50.067Z,21.00
2018-11-03T09:51:18.559Z,22.27
2018-11-03T09:53:46.859Z,23.27
2018-11-03T09:56:15.171Z,22.30
2018-11-03T09:58:43.672Z,21.50
2018-11-03T10:01:12.115Z,21.43
2018-11-03T10:03:40.482Z,23.43
2018-11-03T10:06:08.889Z,22.70
2018-11-03T10:08:37.296Z,22.27
2018-11-03T10:11:05.792Z,24.53
2018-11-03T10:13:34.168Z,41.10
2018-11-03T10:16:02.870Z,25.60
2018-11-03T10:18:31.091Z,22.40
2018-11-03T10:20:59.454Z,23.43
2018-11-03T10:23:27.968Z,22.57
2018-11-03T10:25:56.370Z,28.67
2018-11-03T10:28:24.770Z,23.70
2018-11-03T10:30:53.141Z,24.00
2018-11-03T10:33:21.662Z,24.83
2018-11-03T10:35:54.476Z,23.87
2018-11-03T10:38:23.526Z,26.27
2018-11-03T10:40:51.901Z,28.00
2018-11-03T10:43:20.272Z,28.27
2018-11-03T10:45:48.696Z,22.80
2018-11-03T10:48:17.782Z,21.53
2018-11-03T10:50:46.186Z,26.80
2018-11-03T10:53:14.954Z,27.50
2018-11-03T10:55:45.477Z,25.90
2018-11-03T10:58:14.732Z,22.83
2018-11-03T11:00:48.451Z,23.30
2018-11-03T11:03:22.548Z,21.53
2018-11-03T11:05:56.392Z,24.00
2018-11-03T11:08:30.742Z,21.20
2018-11-03T11:11:06.393Z,24.63
2018-11-03T11:13:37.052Z,21.50
2018-11-03T11:16:06.578Z,24.97
2018-11-03T11:18:35.640Z,20.33
2018-11-03T11:21:06.480Z,18.50
2018-11-03T11:26:26.707Z,19.50
2018-11-03T11:28:56.179Z,17.70
2018-11-03T11:31:24.772Z,16.60
2018-11-03T11:33:53.047Z,17.17
2018-11-03T11:36:21.832Z,16.40
2018-11-03T11:38:50.467Z,13.93
2018-11-03T11:41:18.868Z,12.57
2018-11-03T11:43:47.350Z,11.30
2018-11-03T11:46:16.102Z,12.30
2018-11-03T11:48:44.475Z,13.20
2018-11-03T11:51:12.852Z,17.30
2018-11-03T11:53:41.403Z,11.23
2018-11-03T11:56:09.907Z,12.67
2018-11-03T11:58:38.255Z,12.33
2018-11-03T12:01:07.570Z,11.60
2018-11-03T12:03:36.441Z,11.00
2018-11-03T12:06:04.899Z,13.77
2018-11-03T12:08:33.327Z,11.77
2018-11-03T12:11:02.185Z,10.17
2018-11-03T12:13:30.643Z,11.50
2018-11-03T12:15:59.315Z,11.43
2018-11-03T12:18:28.309Z,11.80
2018-11-03T12:20:58.236Z,16.00
2018-11-03T12:23:26.857Z,10.60
2018-11-03T12:25:55.704Z,11.40
2018-11-03T12:28:24.119Z,8.80
2018-11-03T12:30:52.550Z,6.87
2018-11-03T12:33:21.529Z,13.07
2018-11-03T12:35:49.995Z,8.20
2018-11-03T12:38:19.679Z,6.90
2018-11-03T12:40:49.465Z,9.00
2018-11-03T12:43:17.799Z,10.70
2018-11-03T12:45:46.411Z,8.37
2018-11-03T12:48:15.283Z,8.70
2018-11-03T12:50:44.645Z,6.07
2018-11-03T12:53:13.109Z,7.27
2018-11-03T12:55:42.155Z,8.10
2018-11-03T12:58:10.704Z,6.50
2018-11-03T13:00:39.159Z,8.10
2018-11-03T13:03:08.387Z,6.17
2018-11-03T13:05:38.253Z,7.47
2018-11-03T13:08:07.636Z,6.77
2018-11-03T13:10:36.049Z,7.90
2018-11-03T13:13:04.532Z,6.50
2018-11-03T13:15:34.639Z,8.37
2018-11-03T13:18:03.633Z,8.20
2018-11-03T13:20:32.679Z,8.40
2018-11-03T13:23:02.113Z,6.83
2018-11-03T13:25:31.097Z,5.90
2018-11-03T13:27:59.555Z,7.63
2018-11-03T13:30:29.250Z,13.23
2018-11-03T13:32:57.741Z,11.93
2018-11-03T13:35:26.132Z,14.50
2018-11-03T13:37:54.511Z,8.13
2018-11-03T13:40:22.865Z,6.57
2018-11-03T13:42:51.177Z,23.80
2018-11-03T13:45:23.461Z,5.60
2018-11-03T13:47:52.627Z,5.10
2018-11-03T13:50:21.130Z,5.50
2018-11-03T13:52:50.709Z,7.70
2018-11-03T13:55:19.075Z,6.03
2018-11-03T13:57:48.127Z,6.20
2018-11-03T14:00:17.791Z,7.08
2018-11-03T14:02:47.814Z,7.05
2018-11-03T14:05:16.398Z,6.60
2018-11-03T14:07:44.894Z,6.17
2018-11-03T14:10:14.599Z,8.93
2018-11-03T14:12:43.757Z,9.93
2018-11-03T14:15:13.453Z,7.90
2018-11-03T14:17:42.022Z,7.00
2018-11-03T14:20:12.545Z,7.12
2018-11-03T14:22:41.207Z,7.00
2018-11-03T14:25:12.012Z,9.13
2018-11-03T14:27:41.033Z,7.70
2018-11-03T14:30:10.133Z,8.30
2018-11-03T14:32:38.476Z,8.35
2018-11-03T14:35:07.409Z,8.23
2018-11-03T14:37:35.843Z,9.97
2018-11-03T14:40:07.432Z,7.15
2018-11-03T14:42:36.372Z,8.30
2018-11-03T14:45:05.321Z,7.17
2018-11-03T14:47:33.654Z,22.05
2018-11-03T14:50:04.659Z,9.83
2018-11-03T14:52:35.052Z,9.03
2018-11-03T14:55:04.342Z,7.35
2018-11-03T14:57:32.832Z,9.58
2018-11-03T15:00:01.902Z,7.53
2018-11-03T15:02:31.380Z,7.05
2018-11-03T15:05:06.898Z,7.22
2018-11-03T15:07:36.300Z,8.85
2018-11-03T15:10:05.663Z,7.80
2018-11-03T15:12:34.617Z,7.95
2018-11-03T15:15:03.167Z,6.08
2018-11-03T15:17:31.608Z,5.70
2018-11-03T15:20:01.656Z,5.65
2018-11-03T15:22:30.438Z,6.65
2018-11-03T15:24:58.744Z,6.08
2018-11-03T15:27:27.078Z,4.75
2018-11-03T15:29:55.406Z,4.58
2018-11-03T15:32:24.745Z,5.30
2018-11-03T15:34:53.131Z,6.65
2018-11-03T15:37:21.442Z,5.50
2018-11-03T15:39:50.027Z,5.90
2018-11-03T15:42:18.512Z,5.03
2018-11-03T15:44:47.255Z,3.85
2018-11-03T15:47:16.887Z,5.42
2018-11-03T15:49:45.344Z,2.95
2018-11-03T15:55:17.667Z,2.50
2018-11-03T15:57:46.294Z,3.62
2018-11-03T16:00:19.411Z,4.53
2018-11-03T16:02:48.456Z,3.35
2018-11-03T16:05:17.405Z,4.10
2018-11-03T16:07:48.489Z,4.45
2018-11-03T16:10:17.011Z,3.55
2018-11-03T16:12:49.362Z,3.85
2018-11-03T16:15:18.555Z,7.80
2018-11-03T16:17:47.851Z,4.33
2018-11-03T16:20:17.115Z,3.90
2018-11-03T16:22:46.262Z,3.12
2018-11-03T16:25:14.958Z,3.85
2018-11-03T16:27:44.269Z,3.65
2018-11-03T16:30:15.484Z,2.70
2018-11-03T16:32:44.382Z,3.45
2018-11-03T16:35:13.219Z,2.22
2018-11-03T16:37:42.724Z,3.10
2018-11-03T16:40:13.690Z,3.62
2018-11-03T16:42:43.023Z,3.55
2018-11-03T16:45:13.047Z,3.42
2018-11-03T16:47:42.702Z,3.80
2018-11-03T16:50:12.229Z,4.40
2018-11-03T16:52:45.961Z,3.50
2018-11-03T16:55:20.190Z,6.08
2018-11-03T16:57:48.750Z,30.65
2018-11-03T17:00:17.209Z,4.08
2018-11-03T17:02:48.288Z,7.72
2018-11-03T17:05:16.712Z,12.95
2018-11-03T17:07:49.629Z,9.95
2018-11-03T17:10:20.010Z,11.18
2018-11-03T17:12:48.709Z,7.65
2018-11-03T17:15:17.412Z,5.12
2018-11-03T17:17:46.312Z,4.70
2018-11-03T17:20:15.007Z,3.70
2018-11-03T17:22:43.418Z,3.30
2018-11-03T17:25:12.708Z,3.27
2018-11-03T17:27:42.773Z,3.77
2018-11-03T17:30:13.376Z,2.95
2018-11-03T17:32:42.122Z,3.50
2018-11-03T17:35:11.286Z,5.15
2018-11-03T17:37:46.822Z,10.65
2018-11-03T17:40:15.337Z,7.33
2018-11-03T17:42:43.835Z,6.50
2018-11-03T17:45:12.765Z,4.90
2018-11-03T17:47:41.329Z,5.53
2018-11-03T17:50:11.547Z,4.70
2018-11-03T17:52:40.937Z,7.47
2018-11-03T17:55:09.901Z,6.70
2018-11-03T17:57:39.250Z,4.45
2018-11-03T18:00:15.359Z,5.60
2018-11-03T18:02:44.781Z,6.00
2018-11-03T18:05:14.258Z,5.50
2018-11-03T18:07:45.847Z,8.85
2018-11-03T18:10:14.899Z,8.93
2018-11-03T18:12:43.734Z,11.45
2018-11-03T18:15:13.054Z,10.85
2018-11-03T18:17:45.066Z,11.00
2018-11-03T18:20:18.336Z,14.95
2018-11-03T18:22:49.449Z,12.95
2018-11-03T18:25:19.100Z,14.87
2018-11-03T18:27:48.214Z,12.20
2018-11-03T18:30:18.177Z,8.60
2018-11-03T18:32:47.988Z,7.15
2018-11-03T18:35:16.406Z,11.18
2018-11-03T18:37:45.373Z,9.63
2018-11-03T18:40:13.907Z,5.25
2018-11-03T18:42:49.240Z,5.35
2018-11-03T18:45:17.863Z,5.70
2018-11-03T18:47:46.608Z,6.03
2018-11-03T18:50:16.421Z,7.75
2018-11-03T18:52:46.020Z,5.42
2018-11-03T18:55:15.122Z,4.30
2018-11-03T18:57:43.524Z,4.58
2018-11-03T19:00:12.573Z,5.67
2018-11-03T19:02:41.621Z,3.77
2018-11-03T19:05:10.184Z,4.92
2018-11-03T19:07:38.663Z,4.75
2018-11-03T19:10:07.854Z,6.20
2018-11-03T19:12:37.731Z,5.35
2018-11-03T19:15:09.978Z,5.97
2018-11-03T19:17:39.708Z,8.18
2018-11-03T19:20:10.982Z,5.20
2018-11-03T19:22:40.058Z,4.40
2018-11-03T19:25:10.990Z,4.85
2018-11-03T19:27:43.174Z,8.80
2018-11-03T19:30:16.061Z,9.13
2018-11-03T19:32:45.434Z,11.03
2018-11-03T19:35:15.214Z,7.62
2018-11-03T19:37:44.256Z,12.25
2018-11-03T19:40:14.442Z,9.60
2018-11-03T19:42:46.792Z,9.45
2018-11-03T19:45:21.960Z,9.88
2018-11-03T19:47:51.446Z,9.13
2018-11-03T19:50:22.676Z,11.90
2018-11-03T19:52:51.890Z,9.85
2018-11-03T19:55:21.866Z,9.15
2018-11-03T19:57:50.747Z,9.85
2018-11-03T20:00:23.618Z,6.60
2018-11-03T20:02:55.552Z,10.43
2018-11-03T20:05:25.473Z,11.55
2018-11-03T20:08:09.889Z,11.50
2018-11-03T20:10:43.224Z,10.98
2018-11-03T20:13:12.961Z,9.78
2018-11-03T20:15:43.308Z,8.15
2018-11-03T20:18:13.353Z,14.15
2018-11-03T20:20:44.717Z,13.00
2018-11-03T20:23:15.189Z,12.15
2018-11-03T20:25:45.923Z,11.65
2018-11-03T20:28:15.094Z,19.98
2018-11-03T20:30:48.135Z,14.80
2018-11-03T20:33:28.813Z,10.70
2018-11-03T20:36:01.299Z,13.65
2018-11-03T20:38:34.396Z,8.78
2018-11-03T20:41:10.055Z,8.23
2018-11-03T20:43:47.713Z,9.93
2018-11-03T20:46:38.652Z,8.03
2018-11-03T20:49:09.739Z,10.43
2018-11-03T20:51:46.069Z,9.98
2018-11-03T20:56:51.477Z,12.03
2018-11-03T20:59:26.154Z,9.55
2018-11-03T21:02:05.815Z,10.95
2018-11-03T21:04:38.341Z,14.45
2018-11-03T21:07:08.194Z,12.95
2018-11-03T21:09:39.313Z,10.50
2018-11-03T21:12:09.337Z,13.28
2018-11-03T21:14:47.911Z,13.80
2018-11-03T21:17:16.969Z,11.55
2018-11-03T21:19:48.096Z,17.40
2018-11-03T21:22:18.773Z,14.43
2018-11-03T21:24:49.805Z,13.08
2018-11-03T21:27:20.576Z,14.03
2018-11-03T21:29:50.599Z,12.40
2018-11-03T21:32:30.637Z,13.43
2018-11-03T21:35:05.305Z,14.07
2018-11-03T21:37:38.024Z,16.00
2018-11-03T21:40:09.646Z,11.63
2018-11-03T21:45:39.333Z,13.70
2018-11-03T21:48:09.930Z,18.40
2018-11-03T21:50:40.659Z,15.13
2018-11-03T22:14:16.526Z,13.80
2018-11-03T22:16:45.927Z,16.00
2018-11-03T22:19:15.541Z,16.55
2018-11-03T22:21:44.159Z,19.25
2018-11-03T22:24:12.807Z,13.08
2018-11-03T22:26:41.278Z,13.50
2018-11-03T22:29:09.960Z,15.38
2018-11-03T22:31:38.538Z,14.30
2018-11-03T22:34:09.784Z,15.95
2018-11-03T22:36:40.333Z,17.35
2018-11-03T22:39:09.002Z,17.48
2018-11-03T22:41:37.565Z,18.98
2018-11-03T22:44:06.040Z,17.42
2018-11-03T22:46:34.830Z,15.85
2018-11-03T22:49:03.304Z,20.48
2018-11-03T22:51:32.467Z,20.35
2018-11-03T22:54:02.432Z,18.10
2018-11-03T22:56:31.038Z,19.15
2018-11-03T22:58:59.535Z,17.02
2018-11-03T23:01:29.170Z,19.07
2018-11-03T23:03:59.038Z,19.60
2018-11-03T23:06:28.693Z,14.93
2018-11-03T23:08:57.905Z,16.73
2018-11-03T23:11:26.918Z,18.15
2018-11-03T23:13:55.700Z,16.75
2018-11-03T23:16:24.102Z,15.25
2018-11-03T23:18:52.504Z,17.10
2018-11-03T23:21:20.916Z,16.07
2018-11-03T23:23:49.273Z,21.60
2018-11-03T23:26:17.758Z,18.00
2018-11-03T23:28:46.163Z,19.25
2018-11-03T23:31:14.578Z,19.27
2018-11-03T23:33:42.927Z,18.67
2018-11-03T23:36:11.329Z,21.87
2018-11-03T23:38:39.679Z,22.20
2018-11-03T23:41:09.058Z,24.07
2018-11-03T23:43:38.405Z,21.50
2018-11-03T23:46:06.815Z,16.73
2018-11-03T23:48:35.168Z,19.27
2018-11-03T23:51:03.666Z,21.12
2018-11-03T23:53:32.054Z,16.40
2018-11-03T23:56:00.463Z,16.73
2018-11-03T23:58:28.887Z,23.80
